Terminal Aerodrome Forecast
Issued by NWS Austin/San Antonio, TX

Current Version | Previous Version | Text Only | Print | Product List | Glossary Off
Versions: 1 2 3 4 5 6 7 8 9 10 11 12 13 14 15 16 17 18 19 20 21 22 23

000
FTUS44 KEWX 230700 AAA
TAFAUS
TAF AMD
KAUS 230712Z 2307/2412 19007KT P6SM SCT020
     FM230900 18007KT P6SM BKN020
     FM231500 17010KT P6SM FEW040
     FM240000 15012KT P6SM SKC
     FM241000 18006KT P6SM SCT015=

USA.gov is the U.S. government's official web portal to all federal, state and local government web resources and services.